Time;durP1;ratioP1;P1;durP2;ratioP2;P2;SDS_P1;SDS_P2;PMS_P1;PMS_P2;Temp;Humidity;BMP_temperature;BMP_pressure;BME280_temperature;BME280_humidity;BME280_pressure;Samples;Min_cycle;Max_cycle;Signal;HPM_P1;HPM_P2
2023/10/02 00:02:40;;;;;;;12.95;6.72;;;20.60;99.90;;;;;;4737823;28;46417;-53
2023/10/02 00:05:40;;;;;;;13.38;6.35;;;20.60;99.90;;;;;;4757106;28;45488;-53
2023/10/02 00:08:07;;;;;;;12.90;6.35;;;20.60;99.90;;;;;;4732933;28;45373;-53
2023/10/02 00:10:46;;;;;;;11.40;6.18;;;20.50;99.90;;;;;;4741186;28;45162;-54
2023/10/02 00:13:30;;;;;;;12.15;6.45;;;20.60;99.90;;;;;;4717710;28;45612;-53
2023/10/02 00:16:20;;;;;;;12.27;6.55;;;20.60;99.90;;;;;;4745042;28;46699;-54
2023/10/02 00:19:18;;;;;;;13.73;6.30;;;20.60;99.90;;;;;;4742216;28;45833;-53
2023/10/02 00:21:52;;;;;;;16.55;6.85;;;20.60;99.90;;;;;;4733174;28;45621;-54
2023/10/02 00:24:47;;;;;;;12.73;6.47;;;20.60;99.90;;;;;;4755177;28;45497;-53
2023/10/02 00:27:41;;;;;;;11.35;6.13;;;20.60;99.90;;;;;;4764633;28;46485;-53
2023/10/02 00:30:13;;;;;;;13.02;6.38;;;20.60;99.90;;;;;;4753352;28;45365;-53
2023/10/02 00:33:12;;;;;;;12.60;6.13;;;20.60;99.90;;;;;;4768958;28;45414;-53
2023/10/02 00:35:51;;;;;;;11.90;5.45;;;20.60;99.90;;;;;;4734685;28;45440;-53
2023/10/02 00:38:45;;;;;;;13.52;5.97;;;20.60;99.90;;;;;;4767874;28;47327;-54
2023/10/02 00:41:34;;;;;;;15.13;6.72;;;20.60;99.90;;;;;;4717464;28;45651;-53
2023/10/02 00:47:45;;;;;;;14.90;6.90;;;20.60;99.90;;;;;;4739604;28;45708;-53
2023/10/02 00:50:48;;;;;;;11.13;5.78;;;20.60;99.90;;;;;;4736766;28;46272;-53
2023/10/02 00:53:48;;;;;;;15.73;6.72;;;20.60;99.90;;;;;;4737523;28;46057;-53
2023/10/02 00:56:35;;;;;;;12.25;5.90;;;20.60;99.90;;;;;;4743951;28;45462;-54
2023/10/02 00:59:01;;;;;;;14.80;6.45;;;20.60;99.90;;;;;;4743248;28;45807;-54
2023/10/02 01:01:56;;;;;;;12.13;5.97;;;20.60;99.90;;;;;;4768842;28;45593;-53
2023/10/02 01:04:35;;;;;;;13.45;6.10;;;20.60;99.90;;;;;;4755383;28;45543;-53
2023/10/02 01:07:40;;;;;;;12.27;5.90;;;20.60;99.90;;;;;;4747399;28;45811;-53
2023/10/02 01:10:41;;;;;;;14.23;6.00;;;20.50;99.90;;;;;;4721606;28;45584;-54
2023/10/02 01:13:32;;;;;;;11.75;5.78;;;20.60;99.90;;;;;;4775985;28;45412;-53
2023/10/02 01:16:03;;;;;;;14.80;7.35;;;20.50;99.90;;;;;;4748837;28;45485;-54
2023/10/02 01:19:18;;;;;;;14.60;7.30;;;20.50;99.90;;;;;;4732836;28;45252;-53
2023/10/02 01:22:26;;;;;;;13.95;6.70;;;20.60;99.90;;;;;;4780983;28;45353;-53
2023/10/02 01:25:49;;;;;;;14.63;6.90;;;20.50;99.90;;;;;;4761872;28;46144;-53
2023/10/02 01:31:44;;;;;;;14.63;7.18;;;20.50;99.90;;;;;;4753597;28;45368;-53
2023/10/02 01:34:47;;;;;;;13.93;6.40;;;20.50;99.90;;;;;;4754572;28;45538;-53
2023/10/02 01:37:37;;;;;;;16.23;7.47;;;20.50;99.90;;;;;;4727307;28;45729;-53
2023/10/02 01:43:14;;;;;;;13.02;5.90;;;20.50;99.90;;;;;;4743468;28;45461;-53
2023/10/02 01:45:44;;;;;;;12.18;6.15;;;20.50;99.90;;;;;;4742554;28;45730;-54
2023/10/02 01:51:15;;;;;;;14.57;6.55;;;20.50;99.90;;;;;;4748427;28;45693;-54
2023/10/02 01:53:55;;;;;;;14.95;7.03;;;20.50;99.90;;;;;;4735306;28;46238;-54
2023/10/02 01:56:29;;;;;;;14.13;5.82;;;20.50;99.90;;;;;;4742191;28;45546;-54
2023/10/02 01:59:10;;;;;;;14.45;6.65;;;20.50;99.90;;;;;;4720896;28;48048;-54
2023/10/02 02:04:22;;;;;;;15.75;7.00;;;20.60;99.90;;;;;;4737114;28;45373;-53
2023/10/02 02:07:07;;;;;;;15.50;6.97;;;20.50;99.90;;;;;;4729013;28;45255;-53
2023/10/02 02:10:13;;;;;;;12.02;6.32;;;20.50;99.90;;;;;;4726239;28;45280;-53
2023/10/02 02:12:45;;;;;;;11.07;5.82;;;20.50;99.90;;;;;;4722262;28;45525;-54
2023/10/02 02:15:45;;;;;;;14.32;6.55;;;20.50;99.90;;;;;;4751937;28;46275;-53
2023/10/02 02:18:14;;;;;;;14.45;7.03;;;20.50;99.90;;;;;;4740711;28;45695;-54
2023/10/02 02:21:05;;;;;;;14.30;6.38;;;20.50;99.90;;;;;;4714579;28;46445;-53
2023/10/02 02:23:32;;;;;;;12.50;6.20;;;20.50;99.90;;;;;;4739759;28;45292;-54
2023/10/02 02:26:33;;;;;;;13.38;6.47;;;20.50;99.90;;;;;;4727969;28;45610;-54
2023/10/02 02:29:02;;;;;;;14.77;7.00;;;20.50;99.90;;;;;;4728576;28;45420;-54
2023/10/02 02:31:39;;;;;;;15.95;6.40;;;20.50;99.90;;;;;;4740335;28;46471;-54
2023/10/02 02:34:43;;;;;;;14.50;7.15;;;20.50;99.90;;;;;;4746174;28;45545;-53
2023/10/02 02:37:46;;;;;;;13.07;6.32;;;20.50;99.90;;;;;;4771640;28;45271;-53
2023/10/02 02:40:33;;;;;;;15.02;6.50;;;20.50;99.90;;;;;;4747825;28;45373;-54
2023/10/02 02:43:12;;;;;;;11.93;6.10;;;20.50;99.90;;;;;;4750049;28;47064;-54
2023/10/02 02:46:17;;;;;;;13.15;6.38;;;20.50;99.90;;;;;;4756454;28;45326;-53
2023/10/02 02:49:06;;;;;;;11.88;6.10;;;20.50;99.90;;;;;;4724736;28;46061;-53
2023/10/02 02:52:00;;;;;;;16.42;6.90;;;20.50;99.90;;;;;;4793346;28;45682;-54
2023/10/02 03:20:22;;;;;;;12.60;6.75;;;20.50;99.90;;;;;;5962923;22;45455;-54
2023/10/02 03:22:56;;;;;;;12.65;6.22;;;20.50;99.90;;;;;;5939220;22;45799;-54
2023/10/02 03:25:40;;;;;;;13.23;6.60;;;20.50;99.90;;;;;;5972405;22;44871;-54
2023/10/02 03:28:16;;;;;;;13.77;7.13;;;20.50;99.90;;;;;;5963627;22;45150;-54
2023/10/02 03:31:04;;;;;;;12.77;6.00;;;20.50;99.90;;;;;;5957753;22;45429;-54
2023/10/02 03:33:36;;;;;;;12.50;6.20;;;20.50;99.90;;;;;;5982514;22;44795;-54
2023/10/02 03:36:14;;;;;;;12.77;6.43;;;20.50;99.90;;;;;;5990361;22;44704;-54
2023/10/02 03:38:57;;;;;;;14.85;7.07;;;20.50;99.90;;;;;;5973116;22;45041;-54
2023/10/02 03:41:48;;;;;;;12.68;5.93;;;20.50;99.90;;;;;;5988251;22;46137;-54
2023/10/02 03:44:18;;;;;;;16.48;7.10;;;20.50;99.90;;;;;;5961388;22;45325;-54
2023/10/02 03:46:48;;;;;;;14.55;6.40;;;20.50;99.90;;;;;;5980051;22;44698;-54
2023/10/02 03:49:19;;;;;;;14.68;6.53;;;20.50;99.90;;;;;;5895612;22;44947;-54
2023/10/02 03:52:01;;;;;;;11.32;6.05;;;20.50;99.90;;;;;;5906457;22;45535;-54
2023/10/02 03:54:29;;;;;;;13.10;6.38;;;20.50;99.90;;;;;;5941262;22;45115;-54
2023/10/02 03:57:37;;;;;;;12.35;6.32;;;20.50;99.90;;;;;;5978147;22;44881;-54
2023/10/02 04:04:24;;;;;;;12.95;5.78;;;20.50;99.90;;;;;;5927044;23;44998;-54
2023/10/02 04:07:20;;;;;;;10.27;5.38;;;20.50;99.90;;;;;;5979459;23;44543;-54
2023/10/02 04:09:57;;;;;;;14.52;6.80;;;20.50;99.90;;;;;;5908042;23;44742;-54
2023/10/02 04:12:50;;;;;;;14.80;6.97;;;20.50;99.90;;;;;;5954979;23;44928;-54
2023/10/02 04:15:16;;;;;;;12.90;6.28;;;20.40;99.90;;;;;;5902875;23;46039;-54
2023/10/02 04:17:49;;;;;;;16.33;6.50;;;20.50;99.90;;;;;;5936531;23;44795;-54
2023/10/02 04:23:42;;;;;;;13.80;6.50;;;20.50;99.90;;;;;;5748690;23;45220;-54
2023/10/02 04:26:28;;;;;;;12.45;6.32;;;20.40;99.90;;;;;;5887270;22;46122;-54
2023/10/02 04:28:58;;;;;;;13.43;6.47;;;20.50;99.90;;;;;;5927656;23;44888;-54
2023/10/02 04:31:30;;;;;;;15.95;7.45;;;20.50;99.90;;;;;;5921464;23;44652;-54
2023/10/02 04:34:24;;;;;;;13.55;6.35;;;20.50;99.90;;;;;;5875226;22;45157;-54
2023/10/02 04:36:56;;;;;;;13.70;6.78;;;20.40;99.90;;;;;;5961171;22;45392;-54
2023/10/02 04:43:14;;;;;;;14.77;7.30;;;20.40;99.90;;;;;;5904853;23;45737;-54
2023/10/02 04:45:46;;;;;;;11.98;5.72;;;20.40;99.90;;;;;;5940181;23;44827;-54
2023/10/02 04:48:17;;;;;;;13.55;6.93;;;20.50;99.90;;;;;;5965297;23;45719;-54
2023/10/02 04:50:47;;;;;;;13.10;6.60;;;20.50;99.90;;;;;;5952841;23;44831;-54
2023/10/02 04:56:30;;;;;;;18.02;6.63;;;20.50;99.90;;;;;;5938588;23;44902;-54
2023/10/02 04:58:58;;;;;;;14.88;6.13;;;20.50;99.90;;;;;;5912639;23;46577;-54
2023/10/02 05:01:41;;;;;;;14.23;7.40;;;20.50;99.90;;;;;;5955074;23;44911;-54
2023/10/02 05:04:18;;;;;;;16.10;7.50;;;20.50;99.90;;;;;;5974363;23;45027;-54
2023/10/02 05:06:52;;;;;;;13.30;6.68;;;20.50;99.90;;;;;;5912577;23;45319;-54
2023/10/02 05:09:32;;;;;;;14.88;7.47;;;20.50;99.90;;;;;;5931193;23;45859;-54
2023/10/02 05:12:06;;;;;;;15.32;7.18;;;20.50;99.90;;;;;;5904740;23;44804;-54
2023/10/02 05:14:47;;;;;;;15.57;7.22;;;20.50;99.90;;;;;;5940742;23;44923;-54
2023/10/02 05:17:19;;;;;;;14.63;7.53;;;20.40;99.90;;;;;;5960505;23;44903;-54
2023/10/02 05:22:49;;;;;;;12.20;6.95;;;20.50;99.90;;;;;;5914556;23;44716;-54
2023/10/02 05:25:41;;;;;;;14.43;6.70;;;20.50;99.90;;;;;;5926978;23;44777;-54
2023/10/02 05:28:17;;;;;;;15.57;7.55;;;20.50;99.90;;;;;;5894087;22;45053;-54
2023/10/02 05:30:53;;;;;;;15.32;7.07;;;20.40;99.90;;;;;;5940048;23;46130;-54
2023/10/02 05:33:41;;;;;;;14.32;7.15;;;20.50;99.90;;;;;;5914174;23;44988;-54
2023/10/02 05:36:28;;;;;;;17.23;7.10;;;20.50;99.90;;;;;;5950483;23;44825;-54
2023/10/02 05:42:05;;;;;;;13.38;6.90;;;20.40;99.90;;;;;;5931592;23;45248;-54
2023/10/02 05:44:36;;;;;;;16.13;7.78;;;20.40;99.90;;;;;;5956362;23;44535;-54
2023/10/02 05:47:18;;;;;;;15.90;7.18;;;20.50;99.90;;;;;;5924439;23;44682;-54
2023/10/02 05:49:49;;;;;;;14.23;6.90;;;20.50;99.90;;;;;;5917473;23;45045;-54
2023/10/02 05:52:19;;;;;;;15.60;7.32;;;20.40;99.90;;;;;;5907913;23;45334;-54
2023/10/02 05:54:53;;;;;;;14.15;7.05;;;20.30;99.90;;;;;;5938691;23;44702;-54
2023/10/02 05:57:54;;;;;;;16.73;7.55;;;20.40;99.90;;;;;;5969253;23;44695;-54
2023/10/02 06:00:21;;;;;;;12.07;6.07;;;20.40;99.90;;;;;;5914890;23;45148;-54
2023/10/02 06:03:04;;;;;;;15.27;7.40;;;20.40;99.90;;;;;;5933954;22;47025;-54
2023/10/02 06:05:33;;;;;;;15.07;7.03;;;20.40;99.90;;;;;;5929914;23;44757;-54
2023/10/02 06:08:16;;;;;;;15.75;7.35;;;20.40;99.90;;;;;;5911511;23;45103;-54
2023/10/02 06:11:31;;;;;;;15.82;7.25;;;20.40;99.90;;;;;;5931643;22;44943;-54
2023/10/02 06:14:13;;;;;;;13.98;6.60;;;20.30;99.80;;;;;;5946165;23;46501;-53
2023/10/02 06:16:47;;;;;;;15.48;7.18;;;20.30;99.90;;;;;;5933788;23;44765;-54
2023/10/02 06:19:25;;;;;;;15.23;7.38;;;20.40;99.90;;;;;;5884406;22;45082;-54
2023/10/02 06:22:09;;;;;;;14.55;6.95;;;20.40;99.90;;;;;;5967580;23;44888;-54
2023/10/02 06:24:39;;;;;;;15.48;7.05;;;20.40;99.90;;;;;;5980944;23;45927;-54
2023/10/02 06:27:22;;;;;;;16.85;7.65;;;20.40;99.90;;;;;;5986085;23;44761;-54
2023/10/02 06:29:52;;;;;;;12.18;6.32;;;20.40;99.90;;;;;;5957408;23;44911;-54
2023/10/02 06:35:40;;;;;;;12.07;6.43;;;20.30;99.90;;;;;;5907627;23;44972;-54
2023/10/02 06:38:33;;;;;;;12.55;6.93;;;20.30;99.90;;;;;;5933463;23;45059;-54
2023/10/02 06:41:17;;;;;;;13.52;7.00;;;20.30;99.90;;;;;;5933584;23;44741;-55
2023/10/02 06:43:53;;;;;;;12.75;6.85;;;20.30;99.90;;;;;;5891747;22;45089;-55
2023/10/02 06:46:25;;;;;;;11.05;5.80;;;20.30;99.90;;;;;;5953831;22;45367;-55
2023/10/02 06:49:15;;;;;;;12.25;6.68;;;20.30;99.90;;;;;;6008863;23;44819;-55
2023/10/02 06:52:16;;;;;;;15.20;6.60;;;20.40;99.90;;;;;;6002774;23;44787;-55
2023/10/02 06:54:48;;;;;;;12.52;6.45;;;20.40;99.90;;;;;;5896207;23;45044;-55
2023/10/02 06:57:26;;;;;;;14.68;6.38;;;20.40;99.90;;;;;;5876248;23;45862;-55
2023/10/02 07:00:21;;;;;;;16.13;7.80;;;20.40;99.90;;;;;;5924052;23;44703;-55
2023/10/02 07:03:34;;;;;;;13.93;6.53;;;20.40;99.90;;;;;;5971900;23;44896;-54
2023/10/02 07:06:15;;;;;;;13.45;6.82;;;20.40;99.90;;;;;;5902788;23;45136;-55
2023/10/02 07:08:47;;;;;;;16.90;7.78;;;20.20;99.90;;;;;;5902438;23;45760;-55
2023/10/02 07:11:18;;;;;;;14.35;7.15;;;20.20;99.90;;;;;;5914157;22;44877;-55
2023/10/02 07:13:56;;;;;;;17.13;7.97;;;20.20;99.90;;;;;;5883439;22;44898;-55
2023/10/02 07:19:38;;;;;;;14.23;6.78;;;20.30;99.60;;;;;;5931024;23;45589;-54
2023/10/02 07:22:26;;;;;;;14.90;6.63;;;20.20;99.90;;;;;;5905630;22;44749;-54
2023/10/02 07:25:20;;;;;;;14.48;6.88;;;20.20;99.90;;;;;;5988977;23;44553;-54
2023/10/02 07:28:04;;;;;;;16.63;7.30;;;20.30;99.90;;;;;;5926679;23;44952;-55
2023/10/02 07:30:34;;;;;;;12.30;6.68;;;20.30;99.90;;;;;;5944505;23;45762;-55
2023/10/02 07:33:10;;;;;;;12.02;5.82;;;20.30;99.90;;;;;;5913992;23;44665;-55
2023/10/02 07:35:54;;;;;;;14.60;6.93;;;20.40;99.90;;;;;;5956091;23;45167;-54
2023/10/02 07:38:41;;;;;;;13.85;6.47;;;20.40;99.90;;;;;;5912764;23;44989;-55
2023/10/02 07:41:09;;;;;;;17.00;7.30;;;20.40;99.90;;;;;;5913759;23;45345;-55
2023/10/02 07:43:47;;;;;;;14.85;6.30;;;20.30;99.90;;;;;;5912842;23;44666;-55
2023/10/02 07:46:31;;;;;;;12.32;6.05;;;20.30;99.90;;;;;;5945555;23;44787;-55
2023/10/02 07:49:00;;;;;;;17.80;7.90;;;20.30;99.90;;;;;;5916017;23;44876;-54
2023/10/02 07:51:36;;;;;;;14.82;6.75;;;20.30;99.90;;;;;;5967133;23;46514;-55
2023/10/02 07:54:26;;;;;;;18.08;7.25;;;20.40;99.90;;;;;;5877156;23;44824;-55
2023/10/02 07:56:54;;;;;;;18.30;7.07;;;20.40;99.90;;;;;;5944779;23;44609;-58
2023/10/02 07:59:28;;;;;;;15.50;6.50;;;20.40;99.90;;;;;;5961852;23;44748;-58
2023/10/02 08:02:17;;;;;;;14.40;6.47;;;20.40;99.90;;;;;;5897715;23;45158;-58
2023/10/02 08:04:52;;;;;;;18.38;7.03;;;20.40;99.90;;;;;;5929369;23;44794;-58
2023/10/02 08:07:29;;;;;;;16.73;7.55;;;20.40;99.90;;;;;;5935607;23;44901;-58
2023/10/02 08:09:57;;;;;;;13.05;5.63;;;20.30;99.90;;;;;;5898039;23;44672;-58
2023/10/02 08:12:33;;;;;;;13.60;6.20;;;20.20;99.90;;;;;;5948645;22;45127;-58
2023/10/02 08:15:44;;;;;;;15.68;6.13;;;20.50;99.90;;;;;;5951331;22;44867;-58
2023/10/02 08:18:55;;;;;;;16.52;7.70;;;20.50;99.90;;;;;;5930595;23;44818;-58
2023/10/02 08:21:34;;;;;;;15.70;6.00;;;20.40;99.90;;;;;;5885227;23;45126;-58
2023/10/02 08:24:18;;;;;;;18.15;5.75;;;20.50;99.90;;;;;;5903331;23;47686;-58
2023/10/02 08:26:44;;;;;;;10.75;5.10;;;20.90;99.90;;;;;;5898900;23;44875;-58
2023/10/02 08:29:15;;;;;;;10.32;5.20;;;21.20;99.90;;;;;;5923192;23;44856;-58
2023/10/02 08:31:44;;;;;;;12.27;5.18;;;21.30;99.90;;;;;;5922321;23;44838;-58
2023/10/02 08:34:19;;;;;;;12.27;5.65;;;21.40;99.90;;;;;;5908095;23;46013;-58
2023/10/02 08:36:54;;;;;;;16.52;6.97;;;21.50;99.90;;;;;;5989135;23;44661;-58
2023/10/02 08:39:36;;;;;;;23.75;8.00;;;21.20;99.90;;;;;;6019381;23;44927;-58
2023/10/02 09:07:44;;;;;;;15.57;7.93;;;20.50;99.90;;;;;;5802235;23;45900;-57
2023/10/02 09:10:33;;;;;;;16.15;7.75;;;20.60;99.90;;;;;;5871312;23;45916;-56
2023/10/02 09:13:14;;;;;;;19.08;7.82;;;20.60;99.90;;;;;;5854616;23;45311;-58
2023/10/02 09:16:14;;;;;;;14.43;7.53;;;20.70;99.90;;;;;;5935445;23;45047;-56
2023/10/02 09:22:16;;;;;;;25.58;7.63;;;20.70;99.90;;;;;;5826339;22;45322;-58
2023/10/02 09:25:23;;;;;;;22.20;7.03;;;20.90;99.90;;;;;;5816709;22;46539;-54
2023/10/02 09:31:44;;;;;;;33.50;8.00;;;20.90;99.90;;;;;;5808646;22;45358;-59
2023/10/02 09:34:30;;;;;;;25.50;7.18;;;21.00;99.90;;;;;;5879378;23;45264;-58
2023/10/02 09:37:32;;;;;;;22.27;8.18;;;21.10;99.90;;;;;;6045449;23;45470;-58
2023/10/02 09:40:00;;;;;;;21.92;8.32;;;20.90;99.90;;;;;;5864235;23;45322;-59
2023/10/02 09:42:30;;;;;;;21.90;9.32;;;20.90;99.90;;;;;;5915627;23;47566;-58
2023/10/02 09:45:08;;;;;;;20.00;8.48;;;20.80;99.90;;;;;;5954847;22;45190;-58
2023/10/02 09:47:47;;;;;;;20.27;8.88;;;20.70;99.90;;;;;;5947202;22;45678;-58
2023/10/02 09:50:51;;;;;;;20.92;8.63;;;20.70;99.90;;;;;;5902356;23;45246;-58
2023/10/02 09:53:32;;;;;;;18.60;8.20;;;20.70;99.90;;;;;;5872435;22;46271;-59
2023/10/02 09:59:45;;;;;;;18.08;8.38;;;20.70;99.90;;;;;;5857541;23;45782;-58
2023/10/02 10:18:12;;;;;;;15.57;7.57;;;20.70;99.90;;;;;;5841890;23;45326;-58
2023/10/02 10:31:55;;;;;;;20.20;8.50;;;20.70;99.90;;;;;;5832057;23;45274;-57
2023/10/02 10:40:55;;;;;;;15.95;7.50;;;20.70;99.90;;;;;;5825775;23;45383;-57
2023/10/02 10:43:43;;;;;;;20.30;8.40;;;20.70;99.90;;;;;;5833394;23;45982;-57
2023/10/02 10:46:37;;;;;;;17.73;8.20;;;20.70;99.90;;;;;;5846877;23;45253;-57
2023/10/02 10:53:26;;;;;;;16.77;7.97;;;20.70;99.90;;;;;;5850172;23;45405;-58
2023/10/02 10:56:28;;;;;;;18.13;8.15;;;20.80;99.90;;;;;;5924541;22;45310;-57
2023/10/02 11:05:20;;;;;;;22.02;9.10;;;20.80;99.90;;;;;;5796680;23;45393;-55
2023/10/02 11:07:47;;;;;;;18.42;7.82;;;20.80;99.90;;;;;;5830180;23;47271;-57
2023/10/02 11:10:41;;;;;;;20.92;8.27;;;20.90;99.90;;;;;;5828354;23;45393;-56
2023/10/02 11:13:24;;;;;;;21.48;9.50;;;20.80;99.90;;;;;;5842873;23;45096;-55
2023/10/02 11:19:35;;;;;;;15.73;7.65;;;20.90;99.90;;;;;;5788744;22;45438;-55
2023/10/02 11:22:31;;;;;;;19.58;7.88;;;20.90;99.90;;;;;;5839223;23;45287;-56
2023/10/02 11:27:57;;;;;;;27.13;9.55;;;20.90;99.90;;;;;;5819536;23;45297;-55
2023/10/02 11:30:36;;;;;;;23.17;8.43;;;20.80;99.90;;;;;;5848252;23;46595;-55
2023/10/02 11:34:15;;;;;;;16.45;7.63;;;20.90;99.90;;;;;;5839078;23;45310;-54
2023/10/02 11:37:16;;;;;;;22.73;8.60;;;20.80;99.90;;;;;;5855942;23;45877;-55
2023/10/02 11:40:25;;;;;;;19.50;8.43;;;20.80;99.90;;;;;;5843362;23;45841;-54
2023/10/02 11:43:02;;;;;;;18.50;8.13;;;20.80;99.90;;;;;;5849134;23;45629;-54
2023/10/02 11:45:50;;;;;;;15.27;6.95;;;20.80;99.90;;;;;;5859098;23;45438;-55
2023/10/02 11:48:18;;;;;;;15.85;7.53;;;20.80;99.90;;;;;;5823610;23;45145;-55
2023/10/02 11:50:50;;;;;;;13.07;6.70;;;20.80;99.90;;;;;;5874538;23;45321;-55
2023/10/02 11:53:21;;;;;;;17.00;8.23;;;20.80;99.90;;;;;;5838223;23;48695;-55
2023/10/02 11:56:20;;;;;;;17.23;7.97;;;20.80;99.90;;;;;;5806633;23;45885;-54
2023/10/02 11:58:48;;;;;;;15.43;7.22;;;20.80;99.90;;;;;;5862269;23;45258;-55
2023/10/02 12:01:27;;;;;;;15.50;7.28;;;20.70;99.90;;;;;;5956027;23;45358;-54
2023/10/02 12:04:12;;;;;;;16.77;7.68;;;20.80;99.90;;;;;;5865742;23;46445;-55
2023/10/02 12:06:58;;;;;;;18.40;8.05;;;20.80;99.90;;;;;;5858463;23;45338;-54
2023/10/02 12:09:27;;;;;;;19.55;8.20;;;20.80;99.90;;;;;;5836219;23;45427;-55
2023/10/02 12:11:58;;;;;;;16.42;7.75;;;20.90;99.90;;;;;;5838185;23;45310;-54
2023/10/02 12:15:04;;;;;;;14.57;7.72;;;20.90;99.90;;;;;;5834032;23;46426;-55
2023/10/02 12:17:31;;;;;;;14.43;6.50;;;20.90;99.90;;;;;;5866817;23;45093;-54
2023/10/02 12:20:00;;;;;;;15.07;7.07;;;20.90;99.90;;;;;;5856302;23;45222;-54
2023/10/02 12:22:54;;;;;;;16.30;7.82;;;20.90;99.90;;;;;;5841327;23;45477;-54
2023/10/02 12:25:21;;;;;;;12.80;6.78;;;20.90;99.90;;;;;;5844346;23;47409;-54
2023/10/02 12:28:00;;;;;;;17.23;8.40;;;20.90;99.90;;;;;;5866371;23;45793;-54
2023/10/02 12:30:28;;;;;;;18.90;7.95;;;21.20;99.90;;;;;;5853482;23;45425;-54
2023/10/02 12:33:27;;;;;;;15.80;7.90;;;21.30;99.90;;;;;;5890865;22;45467;-54
2023/10/02 12:35:57;;;;;;;16.50;8.00;;;21.30;99.90;;;;;;5854572;23;47742;-54
2023/10/02 12:38:26;;;;;;;20.98;7.90;;;21.40;99.90;;;;;;5860693;23;45475;-54
2023/10/02 12:41:20;;;;;;;16.23;7.43;;;21.40;99.90;;;;;;5856121;23;45465;-55
2023/10/02 12:43:55;;;;;;;14.20;7.72;;;21.30;99.90;;;;;;5795357;23;45520;-55
2023/10/02 12:46:30;;;;;;;13.07;6.60;;;21.10;99.90;;;;;;5839472;23;46282;-55
2023/10/02 12:49:19;;;;;;;15.98;7.13;;;20.90;99.90;;;;;;5838187;23;45229;-55
2023/10/02 12:52:35;;;;;;;15.98;7.40;;;20.90;99.90;;;;;;5877019;23;45282;-54
2023/10/02 12:55:04;;;;;;;17.67;8.25;;;20.80;99.90;;;;;;5847522;23;45306;-55
2023/10/02 12:58:09;;;;;;;15.73;6.72;;;20.80;99.90;;;;;;5868140;23;45896;-55
2023/10/02 13:04:13;;;;;;;16.73;7.40;;;21.00;99.90;;;;;;5805393;22;45885;-55
2023/10/02 13:06:41;;;;;;;17.75;7.55;;;21.40;99.90;;;;;;5829646;23;45378;-55
2023/10/02 13:09:35;;;;;;;20.67;7.53;;;21.50;99.90;;;;;;5904960;23;48428;-55
2023/10/02 13:15:37;;;;;;;15.32;7.43;;;21.60;99.90;;;;;;5819471;23;45194;-55
2023/10/02 13:18:55;;;;;;;18.25;7.65;;;21.50;99.90;;;;;;5844340;23;45418;-55
2023/10/02 13:21:51;;;;;;;17.00;7.43;;;21.50;99.90;;;;;;5837322;23;45520;-55
2023/10/02 13:24:46;;;;;;;15.85;7.78;;;21.50;99.90;;;;;;5825857;23;45414;-55
2023/10/02 13:27:25;;;;;;;14.88;6.90;;;21.50;99.90;;;;;;5838529;23;45176;-55
2023/10/02 13:29:53;;;;;;;15.88;7.70;;;21.70;99.90;;;;;;5844208;23;45237;-55
2023/10/02 13:32:37;;;;;;;16.55;7.25;;;21.70;99.90;;;;;;5834100;23;46330;-55
2023/10/02 13:35:05;;;;;;;17.83;7.93;;;21.70;99.90;;;;;;5826471;23;45208;-55
2023/10/02 13:37:47;;;;;;;13.27;7.28;;;21.70;99.90;;;;;;5806951;23;45505;-55
2023/10/02 13:40:38;;;;;;;15.45;7.68;;;21.70;99.90;;;;;;5869010;23;45426;-55
2023/10/02 13:43:41;;;;;;;13.75;6.90;;;21.70;99.90;;;;;;5810599;23;45491;-54
2023/10/02 13:46:11;;;;;;;13.73;6.97;;;21.70;99.90;;;;;;5826796;23;45409;-55
2023/10/02 13:49:05;;;;;;;16.63;6.70;;;21.70;99.90;;;;;;5856395;23;45375;-54
2023/10/02 13:51:49;;;;;;;15.35;7.28;;;21.80;99.90;;;;;;5850369;23;45399;-54
2023/10/02 13:54:32;;;;;;;16.05;7.45;;;21.80;99.90;;;;;;5843749;23;46125;-54
2023/10/02 13:57:02;;;;;;;18.73;7.15;;;21.70;99.90;;;;;;5810360;23;45525;-54
2023/10/02 13:59:37;;;;;;;14.48;7.05;;;21.70;99.90;;;;;;5863630;23;45652;-55
2023/10/02 14:02:51;;;;;;;18.58;6.95;;;21.70;99.90;;;;;;5880487;23;45277;-54
2023/10/02 14:05:19;;;;;;;19.90;7.70;;;21.80;99.90;;;;;;5843380;23;46231;-54
2023/10/02 14:08:17;;;;;;;13.52;6.57;;;21.80;99.90;;;;;;5860861;23;45374;-54
2023/10/02 14:10:59;;;;;;;17.27;7.90;;;21.70;99.90;;;;;;5844948;23;45431;-54
2023/10/02 14:13:56;;;;;;;17.48;7.60;;;21.80;99.90;;;;;;5887819;23;45553;-53
2023/10/02 14:16:49;;;;;;;16.60;7.50;;;21.80;99.90;;;;;;5851823;23;47025;-54
2023/10/02 14:19:27;;;;;;;20.10;7.47;;;21.80;99.90;;;;;;5862465;23;45768;-54
2023/10/02 14:21:55;;;;;;;20.77;7.93;;;21.80;99.90;;;;;;5838021;23;45496;-54
2023/10/02 14:24:36;;;;;;;19.23;8.32;;;21.80;99.90;;;;;;5875182;23;45323;-54
2023/10/02 14:27:04;;;;;;;18.27;8.10;;;21.50;99.90;;;;;;5859447;23;46264;-54
2023/10/02 14:30:13;;;;;;;16.95;7.40;;;21.30;99.90;;;;;;5846231;23;45221;-54
2023/10/02 14:32:55;;;;;;;17.88;7.95;;;21.20;99.90;;;;;;5838228;23;44869;-54
2023/10/02 14:35:28;;;;;;;15.55;7.53;;;21.10;99.90;;;;;;5881265;23;45078;-55
2023/10/02 14:38:03;;;;;;;15.93;7.57;;;21.40;99.90;;;;;;5818772;23;46642;-55
2023/10/02 14:40:56;;;;;;;17.33;7.45;;;21.70;99.90;;;;;;5832405;23;45028;-55
2023/10/02 14:43:49;;;;;;;16.90;7.50;;;21.70;99.90;;;;;;5832690;23;45398;-54
2023/10/02 14:46:19;;;;;;;19.02;7.90;;;21.50;99.90;;;;;;5922636;23;45155;-55
2023/10/02 14:49:07;;;;;;;20.95;8.80;;;21.40;99.90;;;;;;5910185;23;46716;-55
2023/10/02 14:51:58;;;;;;;16.75;7.28;;;21.20;99.90;;;;;;5821649;23;45211;-55
2023/10/02 14:54:37;;;;;;;18.73;7.30;;;21.10;99.90;;;;;;5793069;22;45229;-54
2023/10/02 14:57:31;;;;;;;21.90;7.28;;;21.10;99.90;;;;;;5847462;23;45439;-55
2023/10/02 15:00:21;;;;;;;14.18;6.45;;;21.00;99.90;;;;;;5814463;23;46087;-54
2023/10/02 15:02:50;;;;;;;14.00;6.75;;;21.00;99.90;;;;;;5813635;23;45209;-54
2023/10/02 15:05:18;;;;;;;13.73;6.28;;;21.00;99.90;;;;;;5826889;23;45317;-54
2023/10/02 15:07:45;;;;;;;17.33;6.68;;;21.00;99.90;;;;;;5799262;23;45737;-54
2023/10/02 15:10:35;;;;;;;15.15;7.03;;;21.00;99.90;;;;;;5825836;23;47289;-54
2023/10/02 15:13:28;;;;;;;17.65;7.65;;;21.00;99.90;;;;;;5834802;23;45220;-54
2023/10/02 15:15:57;;;;;;;17.13;6.93;;;21.00;99.90;;;;;;5849749;23;44939;-54
2023/10/02 15:18:46;;;;;;;13.45;7.07;;;21.00;99.90;;;;;;5858734;23;44935;-54
2023/10/02 15:21:45;;;;;;;13.77;6.38;;;21.00;99.90;;;;;;5810060;23;45809;-55
2023/10/02 15:24:18;;;;;;;12.75;6.00;;;21.00;99.90;;;;;;5816965;23;45043;-54
2023/10/02 15:27:17;;;;;;;19.73;8.77;;;21.00;99.90;;;;;;5812373;23;45076;-54
2023/10/02 15:30:04;;;;;;;16.83;7.78;;;21.00;99.90;;;;;;5802529;23;45103;-54
2023/10/02 15:35:12;;;;;;;22.13;9.57;;;21.10;99.90;;;;;;5812863;23;45237;-54
2023/10/02 15:38:01;;;;;;;14.88;6.32;;;21.10;99.90;;;;;;5822310;23;45505;-54
2023/10/02 15:43:27;;;;;;;18.83;7.63;;;21.10;99.90;;;;;;5783574;23;45448;-54
2023/10/02 15:46:20;;;;;;;9.75;5.47;;;21.10;99.90;;;;;;5844049;23;45333;-54
2023/10/02 15:49:13;;;;;;;16.35;8.35;;;21.10;99.90;;;;;;5812857;23;45332;-54
2023/10/02 15:51:41;;;;;;;11.45;6.07;;;21.00;99.90;;;;;;5838056;23;45644;-54
2023/10/02 15:54:36;;;;;;;16.85;6.95;;;21.10;99.90;;;;;;5859760;23;47282;-54
2023/10/02 15:57:18;;;;;;;19.17;8.55;;;21.10;99.90;;;;;;5828045;23;44887;-54
2023/10/02 16:03:03;;;;;;;14.30;7.00;;;21.10;99.90;;;;;;5794221;23;45546;-54
2023/10/02 16:05:52;;;;;;;14.60;6.38;;;21.10;99.90;;;;;;5863235;23;47200;-54
2023/10/02 16:08:19;;;;;;;17.65;8.10;;;21.10;99.90;;;;;;5828272;23;45048;-54
2023/10/02 16:11:18;;;;;;;11.65;5.22;;;21.10;99.90;;;;;;5877713;23;45268;-54
2023/10/02 16:14:12;;;;;;;13.68;6.13;;;21.10;99.90;;;;;;5846233;23;45602;-53
2023/10/02 16:16:50;;;;;;;10.00;5.28;;;21.10;99.90;;;;;;5856137;23;46587;-54
2023/10/02 16:19:23;;;;;;;12.38;5.80;;;21.40;99.90;;;;;;5880887;23;45468;-55
2023/10/02 16:21:50;;;;;;;9.90;5.15;;;21.60;99.90;;;;;;5826757;23;44917;-54
2023/10/02 16:28:04;;;;;;;10.82;5.45;;;21.70;99.90;;;;;;5843867;23;44996;-54
2023/10/02 16:31:00;;;;;;;13.23;6.07;;;21.80;99.90;;;;;;5856815;23;45233;-54
2023/10/02 16:40:03;;;;;;;13.27;6.03;;;21.70;99.90;;;;;;5776696;23;45856;-55
2023/10/02 16:42:30;;;;;;;11.45;5.57;;;21.80;99.90;;;;;;5794100;23;45499;-54
2023/10/02 16:51:24;;;;;;;14.50;5.47;;;21.30;99.90;;;;;;5819706;23;45559;-55
2023/10/02 16:56:50;;;;;;;13.10;5.95;;;21.10;99.90;;;;;;5806440;23;45333;-54
2023/10/02 16:59:32;;;;;;;13.23;5.88;;;21.10;99.90;;;;;;5802538;23;45231;-54
2023/10/02 17:02:04;;;;;;;12.02;5.75;;;21.10;99.90;;;;;;5822120;23;46064;-55
2023/10/02 17:04:58;;;;;;;13.30;5.88;;;21.00;99.90;;;;;;5829697;23;45384;-55